Time,TemperatureF,DewpointF,PressureIn,WindDirection,WindDirectionDegrees,WindSpeedMPH,WindSpeedGustMPH,Humidity,HourlyPrecipIn,Conditions,Clouds,dailyrainin,SoftwareType,DateUTC
2013-04-18 00:00:00,62.6,62.0,30.21,South,180,0.0,0.0,98,0.00,CLR,,0.00,WeatherDisplay:10.37,2013-04-18 04:00:00,
2013-04-18 00:01:00,62.6,62.0,30.21,South,180,0.0,0.0,98,0.00,CLR,,0.00,WeatherDisplay:10.37,2013-04-18 04:01:00,
2013-04-18 00:06:00,62.6,62.0,30.21,South,180,0.0,0.0,98,0.00,CLR,,0.00,WeatherDisplay:10.37,2013-04-18 04:06:00,
2013-04-18 00:12:00,62.2,61.6,30.21,South,180,0.0,0.0,98,0.00,CLR,,0.00,WeatherDisplay:10.37,2013-04-18 04:12:00,
2013-04-18 00:17:00,62.1,61.5,30.21,South,180,0.0,0.0,98,0.00,CLR,,0.00,WeatherDisplay:10.37,2013-04-18 04:17:00,
2013-04-18 00:22:00,61.9,61.3,30.21,South,180,0.0,0.0,98,0.00,CLR,,0.00,WeatherDisplay:10.37,2013-04-18 04:22:00,
2013-04-18 00:27:00,61.9,61.3,30.21,South,180,0.0,0.0,98,0.00,CLR,,0.00,WeatherDisplay:10.37,2013-04-18 04:27:00,
2013-04-18 00:32:00,61.7,61.1,30.21,South,180,0.0,0.0,98,0.00,CLR,,0.00,WeatherDisplay:10.37,2013-04-18 04:32:00,
2013-04-18 00:37:00,61.5,60.9,30.21,South,180,0.0,0.0,98,0.00,CLR,,0.00,WeatherDisplay:10.37,2013-04-18 04:37:00,
2013-04-18 00:42:00,61.3,60.7,30.21,South,180,0.0,0.0,98,0.00,CLR,,0.00,WeatherDisplay:10.37,2013-04-18 04:42:00,
2013-04-18 00:47:00,61.3,60.7,30.21,South,180,0.0,0.0,98,0.00,CLR,,0.00,WeatherDisplay:10.37,2013-04-18 04:47:00,
2013-04-18 00:52:00,61.2,60.6,30.21,South,180,0.0,0.0,98,0.00,CLR,,0.00,WeatherDisplay:10.37,2013-04-18 04:52:00,
2013-04-18 00:57:00,61.0,60.4,30.21,South,180,0.0,0.0,98,0.00,CLR,,0.00,WeatherDisplay:10.37,2013-04-18 04:57:00,
2013-04-18 01:02:00,60.8,60.2,30.21,South,180,0.0,0.0,98,0.00,CLR,,0.00,WeatherDisplay:10.37,2013-04-18 05:02:00,
2013-04-18 01:07:00,60.8,60.2,30.21,South,180,0.0,0.0,98,0.00,CLR,,0.00,WeatherDisplay:10.37,2013-04-18 05:07:00,
2013-04-18 01:12:00,60.6,60.0,30.21,South,180,0.0,0.0,98,0.00,CLR,,0.00,WeatherDisplay:10.37,2013-04-18 05:12:00,
2013-04-18 01:17:00,60.4,59.8,30.21,South,180,0.0,0.0,98,0.00,CLR,,0.00,WeatherDisplay:10.37,2013-04-18 05:17:00,
2013-04-18 01:22:00,60.3,59.7,30.21,South,180,0.0,0.0,98,0.00,CLR,,0.00,WeatherDisplay:10.37,2013-04-18 05:22:00,
2013-04-18 01:27:00,60.3,59.7,30.21,South,180,0.0,0.0,98,0.00,CLR,,0.00,WeatherDisplay:10.37,2013-04-18 05:27:00,
2013-04-18 01:32:00,60.3,59.7,30.21,South,180,0.0,0.0,98,0.00,CLR,,0.00,WeatherDisplay:10.37,2013-04-18 05:32:00,
2013-04-18 01:37:00,60.1,59.5,30.21,South,180,0.0,0.0,98,0.00,CLR,,0.00,WeatherDisplay:10.37,2013-04-18 05:37:00,
2013-04-18 01:42:00,59.9,59.3,30.20,South,180,0.0,0.0,98,0.00,CLR,,0.00,WeatherDisplay:10.37,2013-04-18 05:42:00,
2013-04-18 01:47:00,59.9,59.3,30.20,South,180,0.0,0.0,98,0.00,CLR,,0.00,WeatherDisplay:10.37,2013-04-18 05:47:00,
2013-04-18 01:52:00,59.7,59.1,30.20,South,180,0.0,0.0,98,0.00,CLR,,0.00,WeatherDisplay:10.37,2013-04-18 05:52:00,
2013-04-18 01:57:00,59.7,59.1,30.20,South,180,0.0,0.0,98,0.00,CLR,,0.00,WeatherDisplay:10.37,2013-04-18 05:57:00,
2013-04-18 02:02:00,59.7,59.1,30.20,South,180,0.0,0.0,98,0.00,CLR,,0.00,WeatherDisplay:10.37,2013-04-18 06:02:00,
2013-04-18 02:07:00,59.7,59.1,30.19,South,180,0.0,0.0,98,0.00,CLR,,0.00,WeatherDisplay:10.37,2013-04-18 06:07:00,
2013-04-18 02:12:00,59.5,58.9,30.19,South,180,0.0,0.0,98,0.00,CLR,,0.00,WeatherDisplay:10.37,2013-04-18 06:12:00,
2013-04-18 02:17:00,59.5,58.9,30.18,South,180,0.0,0.0,98,0.00,CLR,,0.00,WeatherDisplay:10.37,2013-04-18 06:17:00,
2013-04-18 02:22:00,59.5,58.9,30.18,South,180,0.0,0.0,98,0.00,CLR,,0.00,WeatherDisplay:10.37,2013-04-18 06:22:00,
2013-04-18 02:27:00,59.4,58.8,30.18,South,180,0.0,0.0,98,0.00,CLR,,0.00,WeatherDisplay:10.37,2013-04-18 06:27:00,
2013-04-18 02:32:00,59.4,58.8,30.18,South,180,0.0,0.0,98,0.00,CLR,,0.00,WeatherDisplay:10.37,2013-04-18 06:32:00,
2013-04-18 02:37:00,59.5,58.9,30.18,South,180,0.0,0.0,98,0.00,CLR,,0.00,WeatherDisplay:10.37,2013-04-18 06:37:00,
2013-04-18 02:42:00,59.4,58.8,30.18,South,180,0.0,0.0,98,0.00,CLR,,0.00,WeatherDisplay:10.37,2013-04-18 06:42:00,
2013-04-18 02:47:00,59.4,58.8,30.18,South,180,0.0,0.0,98,0.00,CLR,,0.00,WeatherDisplay:10.37,2013-04-18 06:47:00,
2013-04-18 02:52:00,59.4,58.8,30.17,South,180,0.0,0.0,98,0.00,CLR,,0.00,WeatherDisplay:10.37,2013-04-18 06:52:00,
2013-04-18 02:57:00,59.5,58.9,30.17,South,180,0.0,0.0,98,0.00,CLR,,0.00,WeatherDisplay:10.37,2013-04-18 06:57:00,
2013-04-18 03:02:00,59.4,58.8,30.17,South,180,0.0,0.0,98,0.00,CLR,,0.00,WeatherDisplay:10.37,2013-04-18 07:02:00,
2013-04-18 03:07:00,59.4,58.8,30.17,South,180,0.0,0.0,98,0.00,CLR,,0.00,WeatherDisplay:10.37,2013-04-18 07:07:00,
2013-04-18 03:12:00,59.4,58.8,30.17,South,180,0.0,0.0,98,0.00,CLR,,0.00,WeatherDisplay:10.37,2013-04-18 07:12:00,
2013-04-18 03:17:00,59.4,58.8,30.17,South,180,0.0,0.0,98,0.00,CLR,,0.00,WeatherDisplay:10.37,2013-04-18 07:17:00,
2013-04-18 03:22:00,59.5,58.9,30.17,South,180,0.0,0.0,98,0.00,CLR,,0.00,WeatherDisplay:10.37,2013-04-18 07:22:00,
2013-04-18 03:27:00,59.7,59.1,30.17,South,180,0.0,0.0,98,0.00,CLR,,0.00,WeatherDisplay:10.37,2013-04-18 07:27:00,
2013-04-18 03:32:00,59.7,59.1,30.17,South,180,0.0,0.0,98,0.00,CLR,,0.00,WeatherDisplay:10.37,2013-04-18 07:32:00,
2013-04-18 03:37:00,59.7,59.1,30.17,South,180,0.0,0.0,98,0.00,CLR,,0.00,WeatherDisplay:10.37,2013-04-18 07:37:00,
2013-04-18 03:42:00,59.5,58.9,30.17,South,180,0.0,0.0,98,0.00,CLR,,0.00,WeatherDisplay:10.37,2013-04-18 07:42:00,
2013-04-18 03:47:00,59.4,58.8,30.17,South,180,0.0,0.0,98,0.00,CLR,,0.00,WeatherDisplay:10.37,2013-04-18 07:47:00,
2013-04-18 03:52:00,59.4,58.8,30.17,South,180,0.0,0.0,98,0.00,CLR,,0.00,WeatherDisplay:10.37,2013-04-18 07:52:00,
2013-04-18 03:57:00,59.2,58.6,30.17,South,180,0.0,0.0,98,0.00,CLR,,0.00,WeatherDisplay:10.37,2013-04-18 07:57:00,
2013-04-18 04:02:00,59.2,58.6,30.18,South,180,0.0,0.0,98,0.00,CLR,,0.00,WeatherDisplay:10.37,2013-04-18 08:02:00,
2013-04-18 04:07:00,59.0,58.4,30.18,South,180,0.0,0.0,98,0.00,CLR,,0.00,WeatherDisplay:10.37,2013-04-18 08:07:00,
2013-04-18 04:12:00,59.0,58.4,30.18,South,180,0.0,0.0,98,0.00,CLR,,0.00,WeatherDisplay:10.37,2013-04-18 08:12:00,
2013-04-18 04:17:00,58.8,58.2,30.18,South,180,0.0,0.0,98,0.00,CLR,,0.00,WeatherDisplay:10.37,2013-04-18 08:17:00,
2013-04-18 04:22:00,58.8,58.2,30.18,South,180,0.0,0.0,98,0.00,CLR,,0.00,WeatherDisplay:10.37,2013-04-18 08:22:00,
2013-04-18 04:27:00,58.6,58.0,30.18,South,180,0.0,0.0,98,0.00,CLR,,0.00,WeatherDisplay:10.37,2013-04-18 08:27:00,
2013-04-18 04:32:00,58.6,58.0,30.18,South,180,0.0,0.0,98,0.00,CLR,,0.00,WeatherDisplay:10.37,2013-04-18 08:32:00,
2013-04-18 04:37:00,58.6,58.0,30.18,South,180,0.0,0.0,98,0.00,CLR,,0.00,WeatherDisplay:10.37,2013-04-18 08:37:00,
2013-04-18 04:42:00,58.6,58.0,30.18,South,180,0.0,0.0,98,0.00,CLR,,0.00,WeatherDisplay:10.37,2013-04-18 08:42:00,
2013-04-18 04:47:00,58.3,57.7,30.18,South,180,0.0,0.0,98,0.00,CLR,,0.00,WeatherDisplay:10.37,2013-04-18 08:47:00,
2013-04-18 04:52:00,58.3,57.7,30.18,South,180,0.0,0.0,98,0.00,CLR,,0.00,WeatherDisplay:10.37,2013-04-18 08:52:00,
2013-04-18 04:57:00,58.3,57.7,30.18,South,180,0.0,0.0,98,0.00,CLR,,0.00,WeatherDisplay:10.37,2013-04-18 08:57:00,
2013-04-18 05:02:00,58.3,57.7,30.18,South,180,0.0,0.0,98,0.00,CLR,,0.00,WeatherDisplay:10.37,2013-04-18 09:02:00,
2013-04-18 05:07:00,58.3,57.7,30.18,South,180,0.0,0.0,98,0.00,CLR,,0.00,WeatherDisplay:10.37,2013-04-18 09:07:00,
2013-04-18 05:12:00,58.1,57.5,30.18,South,180,0.0,0.0,98,0.00,CLR,,0.00,WeatherDisplay:10.37,2013-04-18 09:12:00,
2013-04-18 05:17:00,57.9,57.3,30.18,South,180,0.0,0.0,98,0.00,CLR,,0.00,WeatherDisplay:10.37,2013-04-18 09:17:00,
2013-04-18 05:22:00,57.9,57.3,30.18,South,180,0.0,0.0,98,0.00,CLR,,0.00,WeatherDisplay:10.37,2013-04-18 09:22:00,
2013-04-18 05:27:00,57.9,57.3,30.18,South,180,0.0,0.0,98,0.00,CLR,,0.00,WeatherDisplay:10.37,2013-04-18 09:27:00,
2013-04-18 05:32:00,57.9,57.3,30.18,South,180,0.0,0.0,98,0.00,CLR,,0.00,WeatherDisplay:10.37,2013-04-18 09:32:00,
2013-04-18 05:37:00,57.9,57.3,30.19,South,180,0.0,0.0,98,0.00,CLR,,0.00,WeatherDisplay:10.37,2013-04-18 09:37:00,
2013-04-18 05:42:00,57.9,57.3,30.19,South,180,0.0,0.0,98,0.00,CLR,,0.00,WeatherDisplay:10.37,2013-04-18 09:42:00,
2013-04-18 05:48:00,57.9,57.3,30.19,South,180,0.0,0.0,98,0.00,CLR,,0.00,WeatherDisplay:10.37,2013-04-18 09:48:00,
2013-04-18 05:52:00,57.9,57.3,30.18,South,180,0.0,0.0,98,0.00,CLR,,0.00,WeatherDisplay:10.37,2013-04-18 09:52:00,
2013-04-18 05:58:00,57.9,57.3,30.18,South,180,0.0,0.0,98,0.00,CLR,,0.00,WeatherDisplay:10.37,2013-04-18 09:58:00,
2013-04-18 06:03:00,57.9,57.3,30.18,South,180,0.0,0.0,98,0.00,CLR,,0.00,WeatherDisplay:10.37,2013-04-18 10:03:00,
2013-04-18 06:08:00,57.9,57.3,30.18,South,180,0.0,0.0,98,0.00,CLR,,0.00,WeatherDisplay:10.37,2013-04-18 10:08:00,
2013-04-18 06:13:00,57.7,57.1,30.18,South,180,0.0,0.0,98,0.00,CLR,,0.00,WeatherDisplay:10.37,2013-04-18 10:13:00,
2013-04-18 06:18:00,57.7,57.1,30.19,South,180,0.0,0.0,98,0.00,CLR,,0.00,WeatherDisplay:10.37,2013-04-18 10:18:00,
2013-04-18 06:23:00,57.7,57.1,30.19,South,180,0.0,0.0,98,0.00,CLR,,0.00,WeatherDisplay:10.37,2013-04-18 10:23:00,
2013-04-18 06:28:00,57.7,57.1,30.19,South,180,0.0,0.0,98,0.00,CLR,,0.00,WeatherDisplay:10.37,2013-04-18 10:28:00,
2013-04-18 06:33:00,57.6,57.0,30.19,South,180,0.0,0.0,98,0.00,CLR,,0.00,WeatherDisplay:10.37,2013-04-18 10:33:00,
2013-04-18 06:38:00,57.6,57.0,30.19,South,180,0.0,0.0,98,0.00,CLR,,0.00,WeatherDisplay:10.37,2013-04-18 10:38:00,
2013-04-18 06:43:00,57.6,57.0,30.19,South,180,0.0,0.0,98,0.00,CLR,,0.00,WeatherDisplay:10.37,2013-04-18 10:43:00,
2013-04-18 06:48:00,57.7,57.1,30.19,South,180,0.0,0.0,98,0.00,CLR,,0.00,WeatherDisplay:10.37,2013-04-18 10:48:00,
2013-04-18 06:53:00,57.7,57.1,30.20,South,180,0.0,0.0,98,0.00,CLR,,0.00,WeatherDisplay:10.37,2013-04-18 10:53:00,
2013-04-18 06:58:00,57.7,57.1,30.20,South,180,0.0,0.0,98,0.00,CLR,,0.00,WeatherDisplay:10.37,2013-04-18 10:58:00,
2013-04-18 07:03:00,58.1,57.5,30.20,South,180,0.0,0.0,98,0.00,CLR,,0.00,WeatherDisplay:10.37,2013-04-18 11:03:00,
2013-04-18 07:08:00,58.3,57.7,30.20,South,180,0.0,0.0,98,0.00,CLR,,0.00,WeatherDisplay:10.37,2013-04-18 11:08:00,
2013-04-18 07:13:00,58.5,57.9,30.20,South,180,0.0,0.0,98,0.00,CLR,,0.00,WeatherDisplay:10.37,2013-04-18 11:13:00,
2013-04-18 07:18:00,59.0,58.4,30.21,South,180,0.0,0.0,98,0.00,CLR,,0.00,WeatherDisplay:10.37,2013-04-18 11:18:00,
2013-04-18 07:23:00,59.5,58.9,30.21,South,180,0.0,0.0,98,0.00,CLR,,0.00,WeatherDisplay:10.37,2013-04-18 11:23:00,
2013-04-18 07:28:00,59.7,59.1,30.21,South,180,0.0,0.0,98,0.00,CLR,,0.00,WeatherDisplay:10.37,2013-04-18 11:28:00,
2013-04-18 07:33:00,60.4,59.8,30.21,South,180,0.0,0.0,98,0.00,CLR,,0.00,WeatherDisplay:10.37,2013-04-18 11:33:00,
2013-04-18 07:38:00,60.8,60.2,30.21,SE,135,0.0,0.0,98,0.00,CLR,,0.00,WeatherDisplay:10.37,2013-04-18 11:38:00,
2013-04-18 07:43:00,61.9,61.3,30.21,SE,135,0.0,0.0,98,0.00,CLR,,0.00,WeatherDisplay:10.37,2013-04-18 11:43:00,
2013-04-18 07:48:00,63.1,62.5,30.21,SE,135,0.0,0.0,98,0.00,CLR,,0.00,WeatherDisplay:10.37,2013-04-18 11:48:00,
2013-04-18 07:53:00,65.3,64.7,30.21,SE,135,2.3,2.3,98,0.00,CLR,,0.00,WeatherDisplay:10.37,2013-04-18 11:53:00,
2013-04-18 07:58:00,66.6,66.0,30.21,ESE,112,0.0,0.0,98,0.00,CLR,,0.00,WeatherDisplay:10.37,2013-04-18 11:58:00,
2013-04-18 08:03:00,66.9,66.3,30.21,ESE,112,0.0,0.0,98,0.00,CLR,,0.00,WeatherDisplay:10.37,2013-04-18 12:03:00,
2013-04-18 08:08:00,68.0,67.4,30.21,SE,135,0.0,0.0,98,0.00,CLR,,0.00,WeatherDisplay:10.37,2013-04-18 12:08:00,
2013-04-18 08:13:00,68.7,68.1,30.21,South,180,0.0,0.0,98,0.00,CLR,,0.00,WeatherDisplay:10.37,2013-04-18 12:13:00,
2013-04-18 08:18:00,70.0,69.4,30.21,South,180,2.3,2.3,98,0.00,CLR,,0.00,WeatherDisplay:10.37,2013-04-18 12:18:00,
2013-04-18 08:23:00,70.3,69.7,30.21,SSW,202,2.3,2.3,98,0.00,CLR,,0.00,WeatherDisplay:10.37,2013-04-18 12:23:00,
2013-04-18 08:28:00,70.9,70.3,30.22,SSW,202,0.0,0.0,98,0.00,CLR,,0.00,WeatherDisplay:10.37,2013-04-18 12:28:00,
2013-04-18 08:33:00,71.6,67.9,30.22,SSW,202,0.0,0.0,88,0.00,CLR,,0.00,WeatherDisplay:10.37,2013-04-18 12:33:00,
2013-04-18 08:38:00,72.0,67.6,30.21,SSW,202,2.3,2.3,86,0.00,CLR,,0.00,WeatherDisplay:10.37,2013-04-18 12:38:00,
2013-04-18 08:43:00,72.1,65.9,30.21,SSW,202,3.5,3.5,81,0.00,CLR,,0.00,WeatherDisplay:10.37,2013-04-18 12:43:00,
2013-04-18 08:48:00,70.3,65.2,30.21,South,180,0.0,0.0,84,0.00,CLR,,0.00,WeatherDisplay:10.37,2013-04-18 12:48:00,
2013-04-18 08:53:00,70.7,64.6,30.22,South,180,0.0,0.0,81,0.00,CLR,,0.00,WeatherDisplay:10.37,2013-04-18 12:53:00,
2013-04-18 08:58:00,71.6,65.1,30.22,SW,225,2.9,2.9,80,0.00,CLR,,0.00,WeatherDisplay:10.37,2013-04-18 12:58:00,
2013-04-18 09:03:00,72.0,64.4,30.22,West,270,4.7,4.7,77,0.00,CLR,,0.00,WeatherDisplay:10.37,2013-04-18 13:03:00,
2013-04-18 09:08:00,72.1,64.1,30.22,West,270,4.6,4.6,76,0.00,CLR,,0.00,WeatherDisplay:10.37,2013-04-18 13:08:00,
2013-04-18 09:13:00,72.1,63.7,30.22,SW,225,4.6,4.6,75,0.00,CLR,,0.00,WeatherDisplay:10.37,2013-04-18 13:13:00,
2013-04-18 09:18:00,73.8,65.0,30.22,SW,225,4.6,4.6,74,0.00,CLR,,0.00,WeatherDisplay:10.37,2013-04-18 13:18:00,
2013-04-18 09:23:00,74.1,65.7,30.22,SW,225,3.5,3.5,75,0.00,CLR,,0.00,WeatherDisplay:10.37,2013-04-18 13:23:00,
2013-04-18 09:28:00,73.4,64.2,30.23,SW,225,3.8,3.8,73,0.00,CLR,,0.00,WeatherDisplay:10.37,2013-04-18 13:28:00,
2013-04-18 09:33:00,74.1,63.7,30.23,SW,225,3.5,3.5,70,0.00,CLR,,0.00,WeatherDisplay:10.37,2013-04-18 13:33:00,
2013-04-18 09:38:00,74.8,65.2,30.22,SW,225,3.8,3.8,72,0.00,CLR,,0.00,WeatherDisplay:10.37,2013-04-18 13:38:00,
2013-04-18 09:43:00,74.7,64.3,30.22,WSW,248,4.6,4.6,70,0.00,CLR,,0.00,WeatherDisplay:10.37,2013-04-18 13:43:00,
2013-04-18 09:48:00,75.7,64.8,30.22,SSE,158,3.5,3.5,69,0.00,CLR,,0.00,WeatherDisplay:10.37,2013-04-18 13:48:00,
2013-04-18 09:53:00,76.1,64.8,30.22,SSE,158,3.5,3.5,68,0.00,CLR,,0.00,WeatherDisplay:10.37,2013-04-18 13:53:00,
2013-04-18 09:58:00,75.0,63.7,30.22,West,270,3.8,3.8,68,0.00,CLR,,0.00,WeatherDisplay:10.37,2013-04-18 13:58:00,
2013-04-18 10:03:00,75.9,63.7,30.22,SSW,202,4.6,4.6,66,0.00,CLR,,0.00,WeatherDisplay:10.37,2013-04-18 14:03:00,
2013-04-18 10:08:00,76.1,64.3,30.22,West,270,3.5,3.5,67,0.00,CLR,,0.00,WeatherDisplay:10.37,2013-04-18 14:08:00,
2013-04-18 10:13:00,75.7,63.1,30.22,SSW,202,3.8,3.8,65,0.00,CLR,,0.00,WeatherDisplay:10.37,2013-04-18 14:13:00,
2013-04-18 10:18:00,75.7,63.1,30.23,SW,225,3.5,3.5,65,0.00,CLR,,0.00,WeatherDisplay:10.37,2013-04-18 14:18:00,
2013-04-18 10:23:00,75.7,63.5,30.23,WSW,248,3.5,3.5,66,0.00,CLR,,0.00,WeatherDisplay:10.37,2013-04-18 14:23:00,
2013-04-18 10:28:00,75.6,63.9,30.23,WSW,248,4.6,4.6,67,0.00,CLR,,0.00,WeatherDisplay:10.37,2013-04-18 14:28:00,
2013-04-18 10:33:00,75.2,63.5,30.23,SSW,202,4.7,4.7,67,0.00,CLR,,0.00,WeatherDisplay:10.37,2013-04-18 14:33:00,
2013-04-18 10:38:00,77.0,63.4,30.23,ESE,112,4.7,4.7,63,0.00,CLR,,0.00,WeatherDisplay:10.37,2013-04-18 14:38:00,
2013-04-18 10:43:00,76.1,63.9,30.23,WSW,248,4.6,4.6,66,0.00,CLR,,0.00,WeatherDisplay:10.37,2013-04-18 14:43:00,
2013-04-18 10:48:00,76.8,63.7,30.23,South,180,2.3,0.0,64,0.00,CLR,,0.00,WeatherDisplay:10.37,2013-04-18 14:48:00,
2013-04-18 10:53:00,77.0,63.0,30.23,SW,225,5.8,5.8,62,0.00,CLR,,0.00,WeatherDisplay:10.37,2013-04-18 14:53:00,
2013-04-18 10:58:00,76.8,62.8,30.23,South,180,3.5,0.0,62,0.00,CLR,,0.00,WeatherDisplay:10.37,2013-04-18 14:58:00,
2013-04-18 11:03:00,76.7,63.6,30.24,SW,225,0.0,0.0,64,0.00,CLR,,0.00,WeatherDisplay:10.37,2013-04-18 15:03:00,
2013-04-18 11:08:00,76.7,62.3,30.24,ENE,68,4.6,4.6,61,0.00,CLR,,0.00,WeatherDisplay:10.37,2013-04-18 15:08:00,
2013-04-18 11:13:00,76.7,62.7,30.24,SSE,158,3.5,3.5,62,0.00,CLR,,0.00,WeatherDisplay:10.37,2013-04-18 15:13:00,
2013-04-18 11:18:00,76.7,61.8,30.23,WSW,248,4.7,4.7,60,0.00,CLR,,0.00,WeatherDisplay:10.37,2013-04-18 15:18:00,
2013-04-18 11:23:00,76.7,62.3,30.23,South,180,3.5,3.5,61,0.00,CLR,,0.00,WeatherDisplay:10.37,2013-04-18 15:23:00,
2013-04-18 11:28:00,77.2,63.6,30.09,SSE,157,1.1,-999.0,63,-99.99,,,0.00,Acu-Link.com,2013-04-18 15:28:00,
2013-04-18 11:33:00,76.7,62.7,30.24,WSW,248,4.7,4.7,62,0.00,CLR,,0.00,WeatherDisplay:10.37,2013-04-18 15:33:00,
2013-04-18 11:38:00,76.7,62.7,30.23,South,180,3.5,3.5,62,0.00,CLR,,0.00,WeatherDisplay:10.37,2013-04-18 15:38:00,
2013-04-18 11:43:00,76.7,63.2,30.23,WSW,248,3.5,3.5,63,0.00,CLR,,0.00,WeatherDisplay:10.37,2013-04-18 15:43:00,
2013-04-18 11:48:00,76.7,63.2,30.23,SW,225,4.6,0.0,63,0.00,CLR,,0.00,WeatherDisplay:10.37,2013-04-18 15:48:00,
2013-04-18 11:53:00,76.7,62.7,30.23,SW,225,0.0,0.0,62,0.00,CLR,,0.00,WeatherDisplay:10.37,2013-04-18 15:53:00,
2013-04-18 11:58:00,76.7,59.3,30.23,SSE,158,3.5,0.0,55,0.00,CLR,,0.00,WeatherDisplay:10.37,2013-04-18 15:58:00,
2013-04-18 12:03:00,76.7,59.3,30.23,South,180,2.3,2.3,55,0.00,CLR,,0.00,WeatherDisplay:10.37,2013-04-18 16:03:00,
2013-04-18 12:08:00,76.7,60.3,30.23,WSW,248,5.8,5.8,57,0.00,CLR,,0.00,WeatherDisplay:10.37,2013-04-18 16:08:00,
2013-04-18 12:14:00,76.7,59.3,30.23,SW,225,5.8,5.8,55,0.00,CLR,,0.00,WeatherDisplay:10.37,2013-04-18 16:14:00,
2013-04-18 12:19:00,76.7,59.8,30.23,West,270,2.3,2.3,56,0.00,CLR,,0.00,WeatherDisplay:10.37,2013-04-18 16:19:00,
2013-04-18 12:24:00,76.5,63.0,30.23,South,180,4.6,0.0,63,0.00,CLR,,0.00,WeatherDisplay:10.37,2013-04-18 16:24:00,
2013-04-18 12:29:00,76.5,63.4,30.22,South,180,4.6,4.6,64,0.00,CLR,,0.00,WeatherDisplay:10.37,2013-04-18 16:29:00,
2013-04-18 12:34:00,76.6,63.1,30.22,SSE,158,2.9,2.9,63,0.00,CLR,,0.00,WeatherDisplay:10.37,2013-04-18 16:34:00,
2013-04-18 12:39:00,76.6,63.1,30.22,ESE,112,3.5,3.5,63,0.00,CLR,,0.00,WeatherDisplay:10.37,2013-04-18 16:39:00,
2013-04-18 12:44:00,76.6,63.1,30.22,SW,225,6.9,6.9,63,0.00,CLR,,0.00,WeatherDisplay:10.37,2013-04-18 16:44:00,
2013-04-18 12:49:00,76.6,63.1,30.22,SSW,202,6.9,6.9,63,0.00,CLR,,0.00,WeatherDisplay:10.37,2013-04-18 16:49:00,
2013-04-18 12:54:00,76.6,62.6,30.22,SW,225,4.6,4.6,62,0.00,CLR,,0.00,WeatherDisplay:10.37,2013-04-18 16:54:00,
2013-04-18 12:59:00,76.7,61.3,30.22,SW,225,3.5,3.5,59,0.00,CLR,,0.00,WeatherDisplay:10.37,2013-04-18 16:59:00,
2013-04-18 13:04:00,76.7,61.2,30.21,SW,225,3.5,3.5,59,0.00,CLR,,0.00,WeatherDisplay:10.37,2013-04-18 17:04:00,
2013-04-18 13:09:00,76.5,63.4,30.21,SW,225,0.0,1.4,64,0.00,CLR,,0.00,WeatherDisplay:10.37,2013-04-18 17:09:00,
2013-04-18 13:14:00,76.1,63.0,30.21,SW,225,5.8,5.8,64,0.00,CLR,,0.00,WeatherDisplay:10.37,2013-04-18 17:14:00,
2013-04-18 13:19:00,76.3,64.1,30.21,NW,315,4.6,4.6,66,0.00,CLR,,0.00,WeatherDisplay:10.37,2013-04-18 17:19:00,
2013-04-18 13:24:00,76.4,62.9,30.21,SSE,158,3.8,3.8,63,0.00,CLR,,0.00,WeatherDisplay:10.37,2013-04-18 17:24:00,
2013-04-18 13:29:00,76.5,63.4,30.21,SW,225,3.5,3.5,64,0.00,CLR,,0.00,WeatherDisplay:10.37,2013-04-18 17:29:00,
2013-04-18 13:34:00,76.5,63.0,30.21,SW,225,3.5,3.5,63,0.00,CLR,,0.00,WeatherDisplay:10.37,2013-04-18 17:34:00,
2013-04-18 13:39:00,76.5,63.9,30.21,WSW,248,0.0,0.0,65,0.00,CLR,,0.00,WeatherDisplay:10.37,2013-04-18 17:39:00,
2013-04-18 13:44:00,76.1,63.9,30.21,South,180,0.0,0.0,66,0.00,CLR,,0.00,WeatherDisplay:10.37,2013-04-18 17:44:00,
2013-04-18 13:49:00,76.1,62.6,30.21,SSE,158,3.5,3.5,63,0.00,CLR,,0.00,WeatherDisplay:10.37,2013-04-18 17:49:00,
2013-04-18 13:54:00,76.1,63.0,30.21,SSW,202,4.6,4.6,64,0.00,CLR,,0.00,WeatherDisplay:10.37,2013-04-18 17:54:00,
2013-04-18 13:59:00,76.1,63.0,30.21,South,180,3.5,3.5,64,0.00,CLR,,0.00,WeatherDisplay:10.37,2013-04-18 17:59:00,
2013-04-18 14:04:00,76.1,60.7,30.21,SE,135,0.0,0.0,59,0.00,CLR,,0.00,WeatherDisplay:10.37,2013-04-18 18:04:00,
2013-04-18 14:09:00,76.1,59.3,30.21,SE,135,4.6,4.6,56,0.00,CLR,,0.00,WeatherDisplay:10.37,2013-04-18 18:09:00,
2013-04-18 14:14:00,76.1,64.3,30.21,WSW,248,3.8,3.8,67,0.00,CLR,,0.00,WeatherDisplay:10.37,2013-04-18 18:14:00,
2013-04-18 14:19:00,76.3,64.1,30.21,South,180,0.0,0.0,66,0.00,CLR,,0.00,WeatherDisplay:10.37,2013-04-18 18:19:00,
2013-04-18 14:24:00,76.8,64.1,30.21,West,270,5.8,5.8,65,0.00,CLR,,0.00,WeatherDisplay:10.37,2013-04-18 18:24:00,
2013-04-18 14:29:00,76.1,63.9,30.20,South,180,3.5,3.5,66,0.00,CLR,,0.00,WeatherDisplay:10.37,2013-04-18 18:29:00,
2013-04-18 14:34:00,76.1,63.9,30.20,ESE,112,6.5,6.5,66,0.00,CLR,,0.00,WeatherDisplay:10.37,2013-04-18 18:34:00,
2013-04-18 14:39:00,76.1,64.8,30.20,SSE,158,3.8,3.8,68,0.00,CLR,,0.00,WeatherDisplay:10.37,2013-04-18 18:39:00,
2013-04-18 14:44:00,76.5,65.1,30.20,WSW,248,3.5,3.5,68,0.00,CLR,,0.00,WeatherDisplay:10.37,2013-04-18 18:44:00,
2013-04-18 14:49:00,76.7,63.6,30.20,SW,225,4.6,4.6,64,0.00,CLR,,0.00,WeatherDisplay:10.37,2013-04-18 18:49:00,
2013-04-18 14:54:00,76.7,63.6,30.20,SW,225,6.9,6.9,64,0.00,CLR,,0.00,WeatherDisplay:10.37,2013-04-18 18:54:00,
2013-04-18 14:59:00,76.7,62.2,30.20,SE,135,4.6,4.6,61,0.00,CLR,,0.00,WeatherDisplay:10.37,2013-04-18 18:59:00,
2013-04-18 15:04:00,76.7,62.2,30.19,South,180,4.6,4.6,61,0.00,CLR,,0.00,WeatherDisplay:10.37,2013-04-18 19:04:00,
2013-04-18 15:09:00,76.7,61.7,30.19,SSE,158,4.6,4.6,60,0.00,CLR,,0.00,WeatherDisplay:10.37,2013-04-18 19:09:00,
2013-04-18 15:14:00,76.7,64.0,30.18,SW,225,2.9,2.9,65,0.00,CLR,,0.00,WeatherDisplay:10.37,2013-04-18 19:14:00,
2013-04-18 15:19:00,76.7,62.7,30.18,SSE,158,3.5,3.5,62,0.00,CLR,,0.00,WeatherDisplay:10.37,2013-04-18 19:19:00,
2013-04-18 15:24:00,76.7,60.3,30.18,SSW,202,3.5,3.5,57,0.00,CLR,,0.00,WeatherDisplay:10.37,2013-04-18 19:24:00,
2013-04-18 15:29:00,76.7,62.2,30.18,SSE,158,3.5,3.5,61,0.00,CLR,,0.00,WeatherDisplay:10.37,2013-04-18 19:29:00,
2013-04-18 15:34:00,77.0,63.4,30.18,SSW,202,5.8,5.8,63,0.00,CLR,,0.00,WeatherDisplay:10.37,2013-04-18 19:34:00,
2013-04-18 15:39:00,76.7,63.1,30.18,SE,135,5.8,5.8,63,0.00,CLR,,0.00,WeatherDisplay:10.37,2013-04-18 19:39:00,
2013-04-18 15:44:00,76.7,60.9,30.18,SW,225,4.6,4.6,58,0.00,CLR,,0.00,WeatherDisplay:10.37,2013-04-18 19:44:00,
2013-04-18 15:49:00,76.7,59.9,30.18,SSE,158,4.6,4.6,56,0.00,CLR,,0.00,WeatherDisplay:10.37,2013-04-18 19:49:00,
2013-04-18 15:54:00,76.7,60.4,30.18,SSE,158,3.8,3.8,57,0.00,CLR,,0.00,WeatherDisplay:10.37,2013-04-18 19:54:00,
2013-04-18 15:59:00,76.7,59.4,30.18,SSW,202,4.7,4.7,55,0.00,CLR,,0.00,WeatherDisplay:10.37,2013-04-18 19:59:00,
2013-04-18 16:04:00,76.7,60.9,30.17,SE,135,3.8,3.8,58,0.00,CLR,,0.00,WeatherDisplay:10.37,2013-04-18 20:04:00,
2013-04-18 16:09:00,76.7,60.9,30.17,SSW,202,3.5,3.5,58,0.00,CLR,,0.00,WeatherDisplay:10.37,2013-04-18 20:09:00,
2013-04-18 16:14:00,76.7,61.3,30.17,SSE,158,4.6,4.6,59,0.00,CLR,,0.00,WeatherDisplay:10.37,2013-04-18 20:14:00,
2013-04-18 16:19:00,76.7,61.8,30.17,SSW,202,4.7,4.7,60,0.00,CLR,,0.00,WeatherDisplay:10.37,2013-04-18 20:19:00,
2013-04-18 16:24:00,76.7,61.8,30.17,South,180,3.5,3.5,60,0.00,CLR,,0.00,WeatherDisplay:10.37,2013-04-18 20:24:00,
2013-04-18 16:29:00,76.7,62.7,30.17,West,270,4.7,4.7,62,0.00,CLR,,0.00,WeatherDisplay:10.37,2013-04-18 20:29:00,
2013-04-18 16:34:00,76.7,61.8,30.17,SSW,202,4.6,4.6,60,0.00,CLR,,0.00,WeatherDisplay:10.37,2013-04-18 20:34:00,
2013-04-18 16:39:00,76.7,62.3,30.17,SSE,158,4.6,4.6,61,0.00,CLR,,0.00,WeatherDisplay:10.37,2013-04-18 20:39:00,
2013-04-18 16:44:00,77.0,63.0,30.17,South,180,0.0,0.0,62,0.00,CLR,,0.00,WeatherDisplay:10.37,2013-04-18 20:44:00,
2013-04-18 16:49:00,76.5,62.5,30.17,SW,225,5.8,5.8,62,0.00,CLR,,0.00,WeatherDisplay:10.37,2013-04-18 20:49:00,
2013-04-18 16:54:00,76.1,62.6,30.17,SSW,202,2.3,0.0,63,0.00,CLR,,0.00,WeatherDisplay:10.37,2013-04-18 20:54:00,
2013-04-18 16:59:00,75.4,62.4,30.17,SW,225,3.5,3.5,64,0.00,CLR,,0.00,WeatherDisplay:10.37,2013-04-18 20:59:00,
2013-04-18 17:04:00,75.2,63.1,30.17,SSE,158,3.8,3.8,66,0.00,CLR,,0.00,WeatherDisplay:10.37,2013-04-18 21:04:00,
2013-04-18 17:09:00,74.7,62.6,30.17,SSW,202,3.5,3.5,66,0.00,CLR,,0.00,WeatherDisplay:10.37,2013-04-18 21:09:00,
2013-04-18 17:14:00,74.3,63.1,30.17,SSW,202,6.9,6.9,68,0.00,CLR,,0.00,WeatherDisplay:10.37,2013-04-18 21:14:00,
2013-04-18 17:19:00,74.5,63.2,30.17,SSW,202,0.0,0.0,68,0.00,CLR,,0.00,WeatherDisplay:10.37,2013-04-18 21:19:00,
2013-04-18 17:24:00,74.5,63.2,30.17,SSE,158,0.0,0.0,68,0.00,CLR,,0.00,WeatherDisplay:10.37,2013-04-18 21:24:00,
2013-04-18 17:29:00,74.3,63.1,30.16,South,180,9.2,9.2,68,0.00,CLR,,0.00,WeatherDisplay:10.37,2013-04-18 21:29:00,
2013-04-18 17:34:00,74.7,63.4,30.16,West,270,0.0,0.0,68,0.00,CLR,,0.00,WeatherDisplay:10.37,2013-04-18 21:34:00,
2013-04-18 17:39:00,74.5,62.8,30.15,NE,45,4.7,4.7,67,0.00,CLR,,0.00,WeatherDisplay:10.37,2013-04-18 21:39:00,
2013-04-18 17:44:00,74.8,63.5,30.15,SW,225,0.0,0.0,68,0.00,CLR,,0.00,WeatherDisplay:10.37,2013-04-18 21:44:00,
2013-04-18 17:49:00,74.8,63.1,30.15,SW,225,4.6,4.6,67,0.00,CLR,,0.00,WeatherDisplay:10.37,2013-04-18 21:49:00,
2013-04-18 17:54:00,74.7,63.0,30.15,SW,225,0.0,0.0,67,0.00,CLR,,0.00,WeatherDisplay:10.37,2013-04-18 21:54:00,
2013-04-18 17:59:00,74.1,62.9,30.15,WSW,248,3.5,3.5,68,0.00,CLR,,0.00,WeatherDisplay:10.37,2013-04-18 21:59:00,
2013-04-18 18:05:00,73.9,62.7,30.15,WSW,248,0.0,0.0,68,0.00,CLR,,0.00,WeatherDisplay:10.37,2013-04-18 22:05:00,
2013-04-18 18:10:00,73.8,63.0,30.15,WSW,248,0.0,0.0,69,0.00,CLR,,0.00,WeatherDisplay:10.37,2013-04-18 22:10:00,
2013-04-18 18:15:00,73.6,62.8,30.14,SW,225,0.0,0.0,69,0.00,CLR,,0.00,WeatherDisplay:10.37,2013-04-18 22:15:00,
2013-04-18 18:20:00,73.2,62.8,30.14,SSW,202,3.5,3.5,70,0.00,CLR,,0.00,WeatherDisplay:10.37,2013-04-18 22:20:00,
2013-04-18 18:25:00,73.2,63.2,30.14,SSW,202,0.0,0.0,71,0.00,CLR,,0.00,WeatherDisplay:10.37,2013-04-18 22:25:00,
2013-04-18 18:30:00,72.9,62.9,30.14,SW,225,0.0,0.0,71,0.00,CLR,,0.00,WeatherDisplay:10.37,2013-04-18 22:30:00,
2013-04-18 18:35:00,72.7,63.1,30.14,West,270,0.0,0.0,72,0.00,CLR,,0.00,WeatherDisplay:10.37,2013-04-18 22:35:00,
2013-04-18 18:40:00,72.3,62.8,30.14,SW,225,5.8,5.8,72,0.00,CLR,,0.00,WeatherDisplay:10.37,2013-04-18 22:40:00,
2013-04-18 18:45:00,72.1,63.0,30.14,SW,225,2.3,2.3,73,0.00,CLR,,0.00,WeatherDisplay:10.37,2013-04-18 22:45:00,
2013-04-18 19:02:00,71.2,62.9,29.98,ENE,67,2.2,-999.0,75,-99.99,,,0.00,Acu-Link.com,2013-04-18 23:02:00,
2013-04-18 19:07:00,71.1,63.1,30.13,SW,225,3.5,3.5,76,0.00,CLR,,0.00,WeatherDisplay:10.37,2013-04-18 23:07:00,
2013-04-18 19:12:00,70.9,63.3,30.13,WSW,248,0.0,0.0,77,0.00,CLR,,0.00,WeatherDisplay:10.37,2013-04-18 23:12:00,
2013-04-18 19:17:00,70.5,62.9,30.13,SW,225,3.8,3.8,77,0.00,CLR,,0.00,WeatherDisplay:10.37,2013-04-18 23:17:00,
2013-04-18 19:22:00,70.2,62.6,30.13,SW,225,3.5,3.5,77,0.00,CLR,,0.00,WeatherDisplay:10.37,2013-04-18 23:22:00,
2013-04-18 19:27:00,70.0,62.8,30.13,SW,225,2.3,2.3,78,0.00,CLR,,0.00,WeatherDisplay:10.37,2013-04-18 23:27:00,
2013-04-18 19:32:00,69.6,62.8,30.13,SW,225,0.0,0.0,79,0.00,CLR,,0.00,WeatherDisplay:10.37,2013-04-18 23:32:00,
2013-04-18 19:37:00,69.3,62.9,30.13,SSW,202,2.3,0.0,80,0.00,CLR,,0.00,WeatherDisplay:10.37,2013-04-18 23:37:00,
2013-04-18 19:42:00,69.1,63.0,30.13,SSW,202,2.0,2.0,81,0.00,CLR,,0.00,WeatherDisplay:10.37,2013-04-18 23:42:00,
2013-04-18 19:47:00,68.7,63.0,30.13,SSW,202,3.5,3.5,82,0.00,CLR,,0.00,WeatherDisplay:10.37,2013-04-18 23:47:00,
2013-04-18 19:52:00,68.4,62.7,30.13,SW,225,0.0,0.0,82,0.00,CLR,,0.00,WeatherDisplay:10.37,2013-04-18 23:52:00,
2013-04-18 19:57:00,68.4,62.7,30.13,South,180,0.0,0.0,82,0.00,CLR,,0.00,WeatherDisplay:10.37,2013-04-18 23:57:00,
2013-04-18 20:02:00,68.4,63.0,30.13,South,180,0.0,0.0,83,0.00,CLR,,0.00,WeatherDisplay:10.37,2013-04-19 00:02:00,
2013-04-18 20:07:00,68.4,63.4,30.13,West,270,0.0,0.0,84,0.00,CLR,,0.00,WeatherDisplay:10.37,2013-04-19 00:07:00,
2013-04-18 20:12:00,68.2,63.2,30.13,West,270,0.0,0.0,84,0.00,CLR,,0.00,WeatherDisplay:10.37,2013-04-19 00:12:00,
2013-04-18 20:17:00,68.2,63.2,30.14,South,180,0.0,0.0,84,0.00,CLR,,0.00,WeatherDisplay:10.37,2013-04-19 00:17:00,
2013-04-18 20:22:00,68.2,63.2,30.14,SSW,202,0.0,0.0,84,0.00,CLR,,0.00,WeatherDisplay:10.37,2013-04-19 00:22:00,
2013-04-18 20:27:00,68.2,63.2,30.13,SSW,202,0.0,0.0,84,0.00,CLR,,0.00,WeatherDisplay:10.37,2013-04-19 00:27:00,
2013-04-18 20:32:00,68.0,63.0,30.13,SSW,202,0.0,0.0,84,0.00,CLR,,0.00,WeatherDisplay:10.37,2013-04-19 00:32:00,
2013-04-18 20:37:00,68.0,63.3,30.13,SSW,202,0.0,0.0,85,0.00,CLR,,0.00,WeatherDisplay:10.37,2013-04-19 00:37:00,
2013-04-18 20:42:00,68.0,63.3,30.13,SSW,202,0.0,0.0,85,0.00,CLR,,0.00,WeatherDisplay:10.37,2013-04-19 00:42:00,
2013-04-18 20:47:00,68.0,63.3,30.13,SSW,202,0.0,0.0,85,0.00,CLR,,0.00,WeatherDisplay:10.37,2013-04-19 00:47:00,
2013-04-18 20:52:00,68.0,63.3,30.13,South,180,0.0,0.0,85,0.00,CLR,,0.00,WeatherDisplay:10.37,2013-04-19 00:52:00,
2013-04-18 20:57:00,68.0,63.3,30.13,SW,225,0.0,0.0,85,0.00,CLR,,0.00,WeatherDisplay:10.37,2013-04-19 00:57:00,
2013-04-18 21:02:00,68.0,63.3,30.13,SW,225,0.0,0.0,85,0.00,CLR,,0.00,WeatherDisplay:10.37,2013-04-19 01:02:00,
2013-04-18 21:07:00,68.0,63.7,30.14,SW,225,0.0,0.0,86,0.00,CLR,,0.00,WeatherDisplay:10.37,2013-04-19 01:07:00,
2013-04-18 21:12:00,68.0,63.7,30.14,SW,225,0.0,0.0,86,0.00,CLR,,0.00,WeatherDisplay:10.37,2013-04-19 01:12:00,
2013-04-18 21:17:00,68.0,63.7,30.13,WSW,248,3.5,3.5,86,0.00,CLR,,0.00,WeatherDisplay:10.37,2013-04-19 01:17:00,
2013-04-18 21:22:00,67.8,63.5,30.13,WSW,248,0.0,0.0,86,0.00,CLR,,0.00,WeatherDisplay:10.37,2013-04-19 01:22:00,
2013-04-18 21:27:00,67.8,63.8,30.14,WSW,248,0.0,0.0,87,0.00,CLR,,0.00,WeatherDisplay:10.37,2013-04-19 01:27:00,
2013-04-18 21:32:00,67.6,63.6,30.14,SW,225,2.3,2.3,87,0.00,CLR,,0.00,WeatherDisplay:10.37,2013-04-19 01:32:00,
2013-04-18 21:37:00,67.6,63.6,30.14,WSW,248,0.0,0.0,87,0.00,CLR,,0.00,WeatherDisplay:10.37,2013-04-19 01:37:00,
2013-04-18 21:42:00,67.5,63.8,30.14,SW,225,0.0,0.0,88,0.00,CLR,,0.00,WeatherDisplay:10.37,2013-04-19 01:42:00,
2013-04-18 21:47:00,67.3,63.6,30.14,West,270,3.5,3.5,88,0.00,CLR,,0.00,WeatherDisplay:10.37,2013-04-19 01:47:00,
2013-04-18 21:52:00,67.3,63.9,30.14,WSW,248,0.0,0.0,89,0.00,CLR,,0.00,WeatherDisplay:10.37,2013-04-19 01:52:00,
2013-04-18 21:57:00,67.1,64.1,30.14,ESE,112,3.5,3.5,90,0.00,CLR,,0.00,WeatherDisplay:10.37,2013-04-19 01:57:00,
2013-04-18 22:02:00,67.3,65.8,30.14,West,270,0.0,0.0,95,0.00,CLR,,0.00,WeatherDisplay:10.37,2013-04-19 02:02:00,
2013-04-18 22:07:00,67.3,66.7,30.14,West,270,0.0,0.0,98,0.00,CLR,,0.00,WeatherDisplay:10.37,2013-04-19 02:07:00,
2013-04-18 22:12:00,67.3,66.7,30.14,West,270,0.0,0.0,98,0.00,CLR,,0.00,WeatherDisplay:10.37,2013-04-19 02:12:00,
2013-04-18 22:17:00,67.3,66.7,30.13,West,270,0.0,0.0,98,0.00,CLR,,0.00,WeatherDisplay:10.37,2013-04-19 02:17:00,
2013-04-18 22:22:00,67.3,66.7,30.13,SW,225,2.3,2.3,98,0.00,CLR,,0.00,WeatherDisplay:10.37,2013-04-19 02:22:00,
2013-04-18 22:27:00,67.3,66.7,30.13,SW,225,2.3,2.3,98,0.00,CLR,,0.00,WeatherDisplay:10.37,2013-04-19 02:27:00,
2013-04-18 22:32:00,67.5,66.9,30.13,SW,225,2.3,2.3,98,0.00,CLR,,0.00,WeatherDisplay:10.37,2013-04-19 02:32:00,
2013-04-18 22:37:00,67.6,67.0,30.13,SW,225,2.3,2.3,98,0.00,CLR,,0.00,WeatherDisplay:10.37,2013-04-19 02:37:00,
2013-04-18 22:42:00,67.8,67.2,30.13,SW,225,2.3,0.0,98,0.00,CLR,,0.00,WeatherDisplay:10.37,2013-04-19 02:42:00,
2013-04-18 22:47:00,67.8,67.2,30.13,SW,225,0.0,0.0,98,0.00,CLR,,0.00,WeatherDisplay:10.37,2013-04-19 02:47:00,
2013-04-18 22:52:00,67.8,67.2,30.12,SW,225,0.0,0.0,98,0.00,CLR,,0.00,WeatherDisplay:10.37,2013-04-19 02:52:00,
2013-04-18 22:57:00,67.8,67.2,30.12,SW,225,0.0,0.0,98,0.00,CLR,,0.00,WeatherDisplay:10.37,2013-04-19 02:57:00,
2013-04-18 23:02:00,68.0,66.5,30.12,SW,225,0.0,0.0,95,0.00,CLR,,0.00,WeatherDisplay:10.37,2013-04-19 03:02:00,
2013-04-18 23:07:00,68.0,67.1,30.12,SW,225,0.0,0.0,97,0.00,CLR,,0.00,WeatherDisplay:10.37,2013-04-19 03:07:00,
2013-04-18 23:12:00,68.0,67.4,30.12,West,270,0.0,0.0,98,0.00,CLR,,0.00,WeatherDisplay:10.37,2013-04-19 03:12:00,
2013-04-18 23:17:00,68.2,67.6,30.12,West,270,0.0,0.0,98,0.00,CLR,,0.00,WeatherDisplay:10.37,2013-04-19 03:17:00,
2013-04-18 23:22:00,68.2,67.6,30.12,West,270,0.0,0.0,98,0.00,CLR,,0.00,WeatherDisplay:10.37,2013-04-19 03:22:00,
2013-04-18 23:27:00,68.4,67.2,30.12,WSW,248,2.3,2.3,96,0.00,CLR,,0.00,WeatherDisplay:10.37,2013-04-19 03:27:00,
2013-04-18 23:32:00,68.4,67.8,30.12,WSW,248,0.0,0.0,98,0.00,CLR,,0.00,WeatherDisplay:10.37,2013-04-19 03:32:00,
2013-04-18 23:38:00,68.5,66.4,30.12,SW,225,0.0,0.0,93,0.00,CLR,,0.00,WeatherDisplay:10.37,2013-04-19 03:38:00,
2013-04-18 23:43:00,68.5,66.1,30.11,WSW,248,2.9,2.9,92,0.00,CLR,,0.00,WeatherDisplay:10.37,2013-04-19 03:43:00,
2013-04-18 23:48:00,68.5,67.0,30.11,SW,225,3.5,3.5,95,0.00,CLR,,0.00,WeatherDisplay:10.37,2013-04-19 03:48:00,
2013-04-18 23:53:00,68.5,67.9,30.11,West,270,3.5,3.5,98,0.00,CLR,,0.00,WeatherDisplay:10.37,2013-04-19 03:53:00,
2013-04-18 23:58:00,68.5,67.9,30.11,SW,225,0.0,1.0,98,0.00,CLR,,0.00,WeatherDisplay:10.37,2013-04-19 03:58:00,